sensor_id;sensor_type;location;lat;lon;timestamp;pressure;altitude;pressure_sealevel;temperature;humidity
1480;BME280;732;51.698;4.886;2022-09-11T00:01:43;101922.63;;;17.47;100.00
1480;BME280;732;51.698;4.886;2022-09-11T00:04:13;101915.56;;;17.46;100.00
1480;BME280;732;51.698;4.886;2022-09-11T00:06:43;101899.53;;;17.25;100.00
1480;BME280;732;51.698;4.886;2022-09-11T00:09:12;101922.53;;;17.38;100.00
1480;BME280;732;51.698;4.886;2022-09-11T00:11:41;101919.00;;;17.33;100.00
1480;BME280;732;51.698;4.886;2022-09-11T00:14:12;101887.03;;;17.04;100.00
1480;BME280;732;51.698;4.886;2022-09-11T00:16:43;101933.94;;;17.28;100.00
1480;BME280;732;51.698;4.886;2022-09-11T00:19:16;101914.41;;;17.12;100.00
1480;BME280;732;51.698;4.886;2022-09-11T00:21:47;101956.88;;;17.32;100.00
1480;BME280;732;51.698;4.886;2022-09-11T00:24:17;101954.25;;;17.33;100.00
1480;BME280;732;51.698;4.886;2022-09-11T00:26:45;101926.69;;;17.05;100.00
1480;BME280;732;51.698;4.886;2022-09-11T00:29:14;101955.97;;;17.30;100.00
1480;BME280;732;51.698;4.886;2022-09-11T00:31:43;101933.88;;;17.18;100.00
1480;BME280;732;51.698;4.886;2022-09-11T00:34:11;101947.16;;;17.31;100.00
1480;BME280;732;51.698;4.886;2022-09-11T00:36:40;101933.94;;;17.28;100.00
1480;BME280;732;51.698;4.886;2022-09-11T00:39:11;101938.25;;;17.21;100.00
1480;BME280;732;51.698;4.886;2022-09-11T00:41:42;101933.75;;;17.09;100.00
1480;BME280;732;51.698;4.886;2022-09-11T00:44:56;101938.25;;;17.18;100.00
1480;BME280;732;51.698;4.886;2022-09-11T00:47:28;101937.38;;;17.19;100.00
1480;BME280;732;51.698;4.886;2022-09-11T00:50:08;101932.06;;;17.13;100.00
1480;BME280;732;51.698;4.886;2022-09-11T00:52:46;101936.47;;;17.15;100.00
1480;BME280;732;51.698;4.886;2022-09-11T00:55:24;101954.16;;;17.23;100.00
1480;BME280;732;51.698;4.886;2022-09-11T00:57:57;101950.56;;;17.13;100.00
1480;BME280;732;51.698;4.886;2022-09-11T01:00:27;101931.94;;;17.04;100.00
1480;BME280;732;51.698;4.886;2022-09-11T01:02:56;101950.50;;;17.10;100.00
1480;BME280;732;51.698;4.886;2022-09-11T01:05:27;101958.44;;;17.11;100.00
1480;BME280;732;51.698;4.886;2022-09-11T01:08:01;101943.34;;;16.98;100.00
1480;BME280;732;51.698;4.886;2022-09-11T01:10:44;101957.50;;;17.05;100.00
1480;BME280;732;51.698;4.886;2022-09-11T01:13:27;101954.81;;;17.00;100.00
1480;BME280;732;51.698;4.886;2022-09-11T01:16:11;101930.06;;;16.91;100.00
1480;BME280;732;51.698;4.886;2022-09-11T01:18:48;101949.53;;;17.00;100.00
1480;BME280;732;51.698;4.886;2022-09-11T01:21:47;101936.38;;;17.03;100.00
1480;BME280;732;51.698;4.886;2022-09-11T01:24:36;101934.56;;;17.01;100.00
1480;BME280;732;51.698;4.886;2022-09-11T01:27:33;101946.16;;;17.15;100.00
1480;BME280;732;51.698;4.886;2022-09-11T01:30:08;101931.09;;;17.03;100.00
1480;BME280;732;51.698;4.886;2022-09-11T01:33:07;101901.84;;;16.85;100.00
1480;BME280;732;51.698;4.886;2022-09-11T01:35:51;101948.75;;;17.12;100.00
1480;BME280;732;51.698;4.886;2022-09-11T01:38:30;101933.56;;;16.88;100.00
1480;BME280;732;51.698;4.886;2022-09-11T01:41:05;101915.75;;;16.68;100.00
1480;BME280;732;51.698;4.886;2022-09-11T01:43:41;101936.06;;;16.72;100.00
1480;BME280;732;51.698;4.886;2022-09-11T01:46:18;101954.72;;;16.88;100.00
1480;BME280;732;51.698;4.886;2022-09-11T01:48:57;101908.63;;;16.61;100.00
1480;BME280;732;51.698;4.886;2022-09-11T01:51:31;101952.91;;;16.86;100.00
1480;BME280;732;51.698;4.886;2022-09-11T01:54:03;101946.69;;;16.81;100.00
1480;BME280;732;51.698;4.886;2022-09-11T01:56:38;101950.25;;;16.86;100.00
1480;BME280;732;51.698;4.886;2022-09-11T01:59:12;101928.06;;;16.66;100.00
1480;BME280;732;51.698;4.886;2022-09-11T02:01:46;101936.00;;;16.70;100.00
1480;BME280;732;51.698;4.886;2022-09-11T02:04:21;101960.91;;;16.93;100.00
1480;BME280;732;51.698;4.886;2022-09-11T02:06:59;101950.25;;;16.83;100.00
1480;BME280;732;51.698;4.886;2022-09-11T02:09:36;101962.63;;;16.87;100.00
1480;BME280;732;51.698;4.886;2022-09-11T02:12:08;101965.25;;;16.87;100.00
1480;BME280;732;51.698;4.886;2022-09-11T02:14:42;101967.84;;;16.84;100.00
1480;BME280;732;51.698;4.886;2022-09-11T02:17:19;101967.03;;;16.91;100.00
1480;BME280;732;51.698;4.886;2022-09-11T02:19:52;101954.66;;;16.85;100.00
1480;BME280;732;51.698;4.886;2022-09-11T02:22:22;101933.41;;;16.73;100.00
1480;BME280;732;51.698;4.886;2022-09-11T02:24:51;101904.03;;;16.45;100.00
1480;BME280;732;51.698;4.886;2022-09-11T02:27:23;101930.63;;;16.58;100.00
1480;BME280;732;51.698;4.886;2022-09-11T02:29:57;101963.44;;;16.83;100.00
1480;BME280;732;51.698;4.886;2022-09-11T02:32:28;101952.81;;;16.75;100.00
1480;BME280;732;51.698;4.886;2022-09-11T02:34:59;101969.50;;;16.76;100.00
1480;BME280;732;51.698;4.886;2022-09-11T02:37:41;101974.84;;;16.80;100.00
1480;BME280;732;51.698;4.886;2022-09-11T02:40:45;101967.81;;;16.79;100.00
1480;BME280;732;51.698;4.886;2022-09-11T02:43:44;101965.94;;;16.71;100.00
1480;BME280;732;51.698;4.886;2022-09-11T02:46:37;101939.38;;;16.56;100.00
1480;BME280;732;51.698;4.886;2022-09-11T02:49:17;101963.28;;;16.69;100.00
1480;BME280;732;51.698;4.886;2022-09-11T02:51:54;101961.41;;;16.58;100.00
1480;BME280;732;51.698;4.886;2022-09-11T02:54:34;101969.31;;;16.59;100.00
1480;BME280;732;51.698;4.886;2022-09-11T02:57:14;101956.06;;;16.53;100.00
1480;BME280;732;51.698;4.886;2022-09-11T02:59:51;101971.13;;;16.60;100.00
1480;BME280;732;51.698;4.886;2022-09-11T03:02:23;101963.81;;;16.44;100.00
1480;BME280;732;51.698;4.886;2022-09-11T03:04:54;101944.31;;;16.29;100.00
1480;BME280;732;51.698;4.886;2022-09-11T03:07:23;101959.38;;;16.40;100.00
1480;BME280;732;51.698;4.886;2022-09-11T03:09:52;101981.50;;;16.48;100.00
1480;BME280;732;51.698;4.886;2022-09-11T03:12:23;101969.09;;;16.41;100.00
1480;BME280;732;51.698;4.886;2022-09-11T03:14:53;101989.38;;;16.47;100.00
1480;BME280;732;51.698;4.886;2022-09-11T03:17:24;101985.75;;;16.40;100.00
1480;BME280;732;51.698;4.886;2022-09-11T03:19:52;101970.72;;;16.32;100.00
1480;BME280;732;51.698;4.886;2022-09-11T03:22:22;101972.31;;;16.19;100.00
1480;BME280;732;51.698;4.886;2022-09-11T03:24:52;101987.38;;;16.29;100.00
1480;BME280;732;51.698;4.886;2022-09-11T03:27:21;101980.25;;;16.20;100.00
1480;BME280;732;51.698;4.886;2022-09-11T03:29:50;101975.97;;;16.29;100.00
1480;BME280;732;51.698;4.886;2022-09-11T03:32:19;101981.25;;;16.30;100.00
1480;BME280;732;51.698;4.886;2022-09-11T03:34:50;101982.06;;;16.24;100.00
1480;BME280;732;51.698;4.886;2022-09-11T03:37:18;101990.91;;;16.30;100.00
1480;BME280;732;51.698;4.886;2022-09-11T03:39:47;101946.66;;;16.06;100.00
1480;BME280;732;51.698;4.886;2022-09-11T03:42:15;101985.53;;;16.20;100.00
1480;BME280;732;51.698;4.886;2022-09-11T03:44:43;101958.88;;;16.02;100.00
1480;BME280;732;51.698;4.886;2022-09-11T03:47:12;101964.34;;;16.14;100.00
1480;BME280;732;51.698;4.886;2022-09-11T03:49:41;101985.53;;;16.22;100.00
1480;BME280;732;51.698;4.886;2022-09-11T03:52:12;101960.63;;;16.00;100.00
1480;BME280;732;51.698;4.886;2022-09-11T03:54:40;101978.34;;;16.12;100.00
1480;BME280;732;51.698;4.886;2022-09-11T03:57:08;101980.06;;;16.07;100.00
1480;BME280;732;51.698;4.886;2022-09-11T03:59:37;101975.66;;;16.07;100.00
1480;BME280;732;51.698;4.886;2022-09-11T04:02:06;101958.75;;;15.92;100.00
1480;BME280;732;51.698;4.886;2022-09-11T04:04:35;101970.28;;;16.00;100.00
1480;BME280;732;51.698;4.886;2022-09-11T04:07:04;101981.66;;;15.96;100.00
1480;BME280;732;51.698;4.886;2022-09-11T04:09:34;101946.00;;;15.64;100.00
1480;BME280;732;51.698;4.886;2022-09-11T04:12:02;101926.53;;;15.54;100.00
1480;BME280;732;51.698;4.886;2022-09-11T04:14:31;101947.03;;;15.73;100.00
1480;BME280;732;51.698;4.886;2022-09-11T04:17:02;101985.09;;;15.90;100.00
1480;BME280;732;51.698;4.886;2022-09-11T04:19:30;101986.91;;;15.94;100.00
1480;BME280;732;51.698;4.886;2022-09-11T04:21:59;101954.16;;;15.79;100.00
1480;BME280;732;51.698;4.886;2022-09-11T04:24:28;101954.13;;;15.77;100.00
1480;BME280;732;51.698;4.886;2022-09-11T04:26:59;101976.28;;;15.90;100.00
1480;BME280;732;51.698;4.886;2022-09-11T04:29:28;101977.09;;;15.86;100.00
1480;BME280;732;51.698;4.886;2022-09-11T04:31:58;101980.53;;;15.82;100.00
1480;BME280;732;51.698;4.886;2022-09-11T04:34:30;101982.34;;;15.83;100.00
1480;BME280;732;51.698;4.886;2022-09-11T04:36:59;101987.53;;;15.78;100.00
1480;BME280;732;51.698;4.886;2022-09-11T04:39:28;101994.63;;;15.84;100.00
1480;BME280;732;51.698;4.886;2022-09-11T04:41:59;101993.66;;;15.76;100.00
1480;BME280;732;51.698;4.886;2022-09-11T04:44:28;101974.91;;;15.58;100.00
1480;BME280;732;51.698;4.886;2022-09-11T04:46:58;101989.06;;;15.64;100.00
1480;BME280;732;51.698;4.886;2022-09-11T04:49:27;102002.25;;;15.63;100.00
1480;BME280;732;51.698;4.886;2022-09-11T04:51:57;102000.34;;;15.56;100.00
1480;BME280;732;51.698;4.886;2022-09-11T04:54:29;102003.97;;;15.61;100.00
1480;BME280;732;51.698;4.886;2022-09-11T04:57:01;102012.72;;;15.61;100.00
1480;BME280;732;51.698;4.886;2022-09-11T04:59:33;102011.06;;;15.65;100.00
1480;BME280;732;51.698;4.886;2022-09-11T05:02:05;101983.53;;;15.48;100.00
1480;BME280;732;51.698;4.886;2022-09-11T05:04:38;102010.97;;;15.60;100.00
1480;BME280;732;51.698;4.886;2022-09-11T05:07:06;102004.66;;;15.51;100.00
1480;BME280;732;51.698;4.886;2022-09-11T05:09:35;102015.28;;;15.55;100.00
1480;BME280;732;51.698;4.886;2022-09-11T05:12:06;102019.66;;;15.55;100.00
1480;BME280;732;51.698;4.886;2022-09-11T05:14:36;102019.78;;;15.61;100.00
1480;BME280;732;51.698;4.886;2022-09-11T05:17:05;102018.84;;;15.57;100.00
1480;BME280;732;51.698;4.886;2022-09-11T05:19:38;101978.69;;;15.24;100.00
1480;BME280;732;51.698;4.886;2022-09-11T05:22:07;102040.75;;;15.56;100.00
1480;BME280;732;51.698;4.886;2022-09-11T05:24:39;102044.34;;;15.61;100.00
1480;BME280;732;51.698;4.886;2022-09-11T05:27:08;102011.47;;;15.40;100.00
1480;BME280;732;51.698;4.886;2022-09-11T05:29:37;102044.34;;;15.61;100.00
1480;BME280;732;51.698;4.886;2022-09-11T05:32:09;102055.75;;;15.59;100.00
1480;BME280;732;51.698;4.886;2022-09-11T05:34:40;102003.63;;;15.41;100.00
1480;BME280;732;51.698;4.886;2022-09-11T05:37:12;102054.19;;;15.71;100.00
1480;BME280;732;51.698;4.886;2022-09-11T05:39:44;102056.03;;;15.75;100.00
1480;BME280;732;51.698;4.886;2022-09-11T05:42:15;102037.41;;;15.65;100.00
1480;BME280;732;51.698;4.886;2022-09-11T05:44:48;102064.84;;;15.77;100.00
1480;BME280;732;51.698;4.886;2022-09-11T05:47:16;102063.91;;;15.72;100.00
1480;BME280;732;51.698;4.886;2022-09-11T05:49:48;102070.09;;;15.76;100.00
1480;BME280;732;51.698;4.886;2022-09-11T05:52:17;102071.16;;;15.87;100.00
1480;BME280;732;51.698;4.886;2022-09-11T05:54:46;102073.84;;;15.90;100.00
1480;BME280;732;51.698;4.886;2022-09-11T05:57:16;102049.00;;;15.76;100.00
1480;BME280;732;51.698;4.886;2022-09-11T05:59:46;102030.56;;;15.76;100.00
1480;BME280;732;51.698;4.886;2022-09-11T06:02:14;102076.53;;;15.93;100.00
1480;BME280;732;51.698;4.886;2022-09-11T06:04:48;102072.94;;;15.89;100.00
1480;BME280;732;51.698;4.886;2022-09-11T06:07:18;102073.84;;;15.90;100.00
1480;BME280;732;51.698;4.886;2022-09-11T06:09:48;102081.84;;;15.96;100.00
1480;BME280;732;51.698;4.886;2022-09-11T06:12:18;102093.66;;;16.19;100.00
1480;BME280;732;51.698;4.886;2022-09-11T06:14:48;102083.91;;;16.15;100.00
1480;BME280;732;51.698;4.886;2022-09-11T06:17:16;102084.84;;;16.18;100.00
1480;BME280;732;51.698;4.886;2022-09-11T06:19:45;102104.34;;;16.28;100.00
1480;BME280;732;51.698;4.886;2022-09-11T06:22:14;102092.22;;;16.42;100.00
1480;BME280;732;51.698;4.886;2022-09-11T06:24:44;102092.19;;;16.39;100.00
1480;BME280;732;51.698;4.886;2022-09-11T06:27:15;102110.00;;;16.52;100.00
1480;BME280;732;51.698;4.886;2022-09-11T06:29:48;102111.91;;;16.62;100.00
1480;BME280;732;51.698;4.886;2022-09-11T06:32:19;102104.97;;;16.70;100.00
1480;BME280;732;51.698;4.886;2022-09-11T06:34:47;102110.41;;;16.79;100.00
1480;BME280;732;51.698;4.886;2022-09-11T06:37:16;102110.44;;;16.85;100.00
1480;BME280;732;51.698;4.886;2022-09-11T06:39:47;102113.16;;;16.90;100.00
1480;BME280;732;51.698;4.886;2022-09-11T06:42:22;102114.25;;;17.05;100.00
1480;BME280;732;51.698;4.886;2022-09-11T06:44:52;102092.13;;;16.96;100.00
1480;BME280;732;51.698;4.886;2022-09-11T06:47:20;102084.31;;;17.06;100.00
1480;BME280;732;51.698;4.886;2022-09-11T06:49:51;102103.06;;;17.29;100.00
1480;BME280;732;51.698;4.886;2022-09-11T06:52:32;102095.13;;;17.28;100.00
1480;BME280;732;51.698;4.886;2022-09-11T06:55:08;102065.00;;;17.13;100.00
1480;BME280;732;51.698;4.886;2022-09-11T06:57:46;102102.31;;;17.39;100.00
1480;BME280;732;51.698;4.886;2022-09-11T07:00:21;102026.94;;;16.93;100.00
1480;BME280;732;51.698;4.886;2022-09-11T07:02:50;102083.75;;;17.38;100.00
1480;BME280;732;51.698;4.886;2022-09-11T07:05:20;102087.47;;;17.50;100.00
1480;BME280;732;51.698;4.886;2022-09-11T07:07:51;102071.50;;;17.43;100.00
1480;BME280;732;51.698;4.886;2022-09-11T07:10:23;102077.81;;;17.55;100.00
1480;BME280;732;51.698;4.886;2022-09-11T07:12:57;102114.19;;;17.80;100.00
1480;BME280;732;51.698;4.886;2022-09-11T07:15:26;102092.16;;;17.80;100.00
1480;BME280;732;51.698;4.886;2022-09-11T07:17:57;102102.00;;;17.99;100.00
1480;BME280;732;51.698;4.886;2022-09-11T07:20:27;102073.69;;;17.86;100.00
1480;BME280;732;51.698;4.886;2022-09-11T07:22:56;102106.56;;;18.18;100.00
1480;BME280;732;51.698;4.886;2022-09-11T07:25:26;102108.38;;;18.24;100.00
1480;BME280;732;51.698;4.886;2022-09-11T07:27:54;102117.28;;;18.38;100.00
1480;BME280;732;51.698;4.886;2022-09-11T07:30:22;102105.03;;;18.44;100.00
1480;BME280;732;51.698;4.886;2022-09-11T07:32:55;102093.59;;;18.54;100.00
1480;BME280;732;51.698;4.886;2022-09-11T07:35:24;102077.69;;;18.53;100.00
1480;BME280;732;51.698;4.886;2022-09-11T07:37:54;102107.00;;;18.84;100.00
1480;BME280;732;51.698;4.886;2022-09-11T07:40:25;102116.72;;;18.87;100.00
1480;BME280;732;51.698;4.886;2022-09-11T07:42:56;102124.72;;;18.94;100.00
1480;BME280;732;51.698;4.886;2022-09-11T07:45:26;102126.50;;;19.01;100.00
1480;BME280;732;51.698;4.886;2022-09-11T07:47:59;102121.22;;;19.11;100.00
1480;BME280;732;51.698;4.886;2022-09-11T07:50:29;102122.16;;;19.19;100.00
1480;BME280;732;51.698;4.886;2022-09-11T07:52:58;102136.31;;;19.27;100.00
1480;BME280;732;51.698;4.886;2022-09-11T07:55:27;102128.44;;;19.33;100.00
1480;BME280;732;51.698;4.886;2022-09-11T07:57:56;102094.78;;;19.21;100.00
1480;BME280;732;51.698;4.886;2022-09-11T08:00:24;102106.34;;;19.40;100.00
1480;BME280;732;51.698;4.886;2022-09-11T08:03:03;102094.84;;;19.35;100.00
1480;BME280;732;51.698;4.886;2022-09-11T08:05:34;102126.72;;;19.63;100.00
1480;BME280;732;51.698;4.886;2022-09-11T08:08:04;102094.03;;;19.82;100.00
1480;BME280;732;51.698;4.886;2022-09-11T08:10:36;102155.91;;;20.75;100.00
1480;BME280;732;51.698;4.886;2022-09-11T08:13:07;102141.53;;;21.33;100.00
1480;BME280;732;51.698;4.886;2022-09-11T08:15:36;102143.03;;;21.78;100.00
1480;BME280;732;51.698;4.886;2022-09-11T08:18:08;102139.16;;;22.23;100.00
1480;BME280;732;51.698;4.886;2022-09-11T08:20:36;102114.09;;;22.43;100.00
1480;BME280;732;51.698;4.886;2022-09-11T08:23:05;102114.59;;;22.82;100.00
1480;BME280;732;51.698;4.886;2022-09-11T08:25:35;102082.34;;;23.03;100.00
1480;BME280;732;51.698;4.886;2022-09-11T08:28:05;102083.59;;;23.41;100.00
1480;BME280;732;51.698;4.886;2022-09-11T08:30:34;102071.66;;;23.63;100.00
1480;BME280;732;51.698;4.886;2022-09-11T08:33:05;102077.53;;;23.87;100.00
1480;BME280;732;51.698;4.886;2022-09-11T08:35:37;102046.78;;;23.63;100.00
1480;BME280;732;51.698;4.886;2022-09-11T08:38:05;102052.41;;;23.43;100.00
1480;BME280;732;51.698;4.886;2022-09-11T08:40:36;102028.06;;;23.04;100.00
1480;BME280;732;51.698;4.886;2022-09-11T08:43:15;102075.13;;;23.08;100.00
1480;BME280;732;51.698;4.886;2022-09-11T08:45:52;102063.88;;;22.86;100.00
1480;BME280;732;51.698;4.886;2022-09-11T08:48:31;102071.97;;;22.79;100.00
1480;BME280;732;51.698;4.886;2022-09-11T08:51:03;102047.63;;;23.04;100.00
1480;BME280;732;51.698;4.886;2022-09-11T08:53:32;102086.34;;;23.35;100.00
1480;BME280;732;51.698;4.886;2022-09-11T08:56:08;102055.28;;;23.30;100.00
1480;BME280;732;51.698;4.886;2022-09-11T08:58:50;102060.75;;;23.77;100.00
1480;BME280;732;51.698;4.886;2022-09-11T09:01:29;102090.81;;;23.91;100.00
1480;BME280;732;51.698;4.886;2022-09-11T09:04:20;102087.94;;;24.03;100.00
1480;BME280;732;51.698;4.886;2022-09-11T09:07:04;102103.91;;;24.56;100.00
1480;BME280;732;51.698;4.886;2022-09-11T09:09:47;102061.97;;;24.58;100.00
1480;BME280;732;51.698;4.886;2022-09-11T09:12:25;102084.31;;;24.99;100.00
1480;BME280;732;51.698;4.886;2022-09-11T09:15:12;102100.72;;;25.23;100.00
1480;BME280;732;51.698;4.886;2022-09-11T09:17:46;102082.13;;;25.19;100.00
1480;BME280;732;51.698;4.886;2022-09-11T09:20:20;102080.41;;;25.55;100.00
1480;BME280;732;51.698;4.886;2022-09-11T09:22:55;102085.22;;;26.12;100.00
1480;BME280;732;51.698;4.886;2022-09-11T09:25:27;102070.25;;;26.37;100.00
1480;BME280;732;51.698;4.886;2022-09-11T09:28:03;102086.88;;;26.50;100.00
1480;BME280;732;51.698;4.886;2022-09-11T09:30:42;102086.31;;;26.71;100.00
1480;BME280;732;51.698;4.886;2022-09-11T09:33:25;102079.69;;;26.83;100.00
1480;BME280;732;51.698;4.886;2022-09-11T09:36:09;102059.63;;;26.65;100.00
1480;BME280;732;51.698;4.886;2022-09-11T09:38:41;102076.28;;;26.45;100.00
1480;BME280;732;51.698;4.886;2022-09-11T09:41:43;102083.81;;;25.98;100.00
1480;BME280;732;51.698;4.886;2022-09-11T09:44:28;102092.69;;;25.98;100.00
1480;BME280;732;51.698;4.886;2022-09-11T09:47:02;102086.78;;;25.86;100.00
1480;BME280;732;51.698;4.886;2022-09-11T09:49:33;102089.09;;;25.26;100.00
1480;BME280;732;51.698;4.886;2022-09-11T09:52:15;102065.22;;;24.74;100.00
1480;BME280;732;51.698;4.886;2022-09-11T09:54:54;102089.41;;;24.68;100.00
1480;BME280;732;51.698;4.886;2022-09-11T09:57:26;102048.53;;;24.17;100.00
1480;BME280;732;51.698;4.886;2022-09-11T10:00:02;102095.31;;;24.39;100.00
1480;BME280;732;51.698;4.886;2022-09-11T10:02:40;102079.66;;;24.18;100.00
1480;BME280;732;51.698;4.886;2022-09-11T10:05:18;102054.16;;;23.99;100.00
1480;BME280;732;51.698;4.886;2022-09-11T10:07:49;102094.22;;;24.02;100.00
1480;BME280;732;51.698;4.886;2022-09-11T10:10:27;102087.16;;;23.95;100.00
1480;BME280;732;51.698;4.886;2022-09-11T10:12:58;102093.31;;;24.00;100.00
1480;BME280;732;51.698;4.886;2022-09-11T10:15:44;102060.97;;;23.63;100.00
1480;BME280;732;51.698;4.886;2022-09-11T10:18:25;102069.81;;;23.67;100.00
1480;BME280;732;51.698;4.886;2022-09-11T10:21:17;102069.13;;;23.56;100.00
1480;BME280;732;51.698;4.886;2022-09-11T10:23:51;102094.63;;;23.75;100.00
1480;BME280;732;51.698;4.886;2022-09-11T10:26:27;102094.34;;;23.93;100.00
1480;BME280;732;51.698;4.886;2022-09-11T10:29:03;102100.09;;;24.22;100.00
1480;BME280;732;51.698;4.886;2022-09-11T10:31:35;102086.78;;;24.18;100.00
1480;BME280;732;51.698;4.886;2022-09-11T10:34:06;102089.94;;;24.41;100.00
1480;BME280;732;51.698;4.886;2022-09-11T10:36:52;102054.66;;;24.22;100.00
1480;BME280;732;51.698;4.886;2022-09-11T10:39:23;102068.22;;;24.10;100.00
1480;BME280;732;51.698;4.886;2022-09-11T10:41:57;102077.59;;;24.34;100.00
1480;BME280;732;51.698;4.886;2022-09-11T10:44:28;102037.72;;;24.23;100.00
1480;BME280;732;51.698;4.886;2022-09-11T10:47:04;102055.66;;;24.63;100.00
1480;BME280;732;51.698;4.886;2022-09-11T10:49:33;102043.41;;;24.94;100.00
1480;BME280;732;51.698;4.886;2022-09-11T10:52:15;102075.66;;;25.27;100.00
1480;BME280;732;51.698;4.886;2022-09-11T10:54:55;102062.94;;;25.37;100.00
1480;BME280;732;51.698;4.886;2022-09-11T10:57:32;102033.72;;;25.28;100.00
1480;BME280;732;51.698;4.886;2022-09-11T11:00:11;102061.59;;;25.58;100.00
1480;BME280;732;51.698;4.886;2022-09-11T11:02:43;102039.84;;;25.71;100.00
1480;BME280;732;51.698;4.886;2022-09-11T11:05:20;102048.00;;;26.00;100.00
1480;BME280;732;51.698;4.886;2022-09-11T11:08:21;102051.09;;;26.51;100.00
1480;BME280;732;51.698;4.886;2022-09-11T11:11:11;102058.50;;;26.74;100.00
1480;BME280;732;51.698;4.886;2022-09-11T11:14:00;102031.41;;;26.83;100.00
1480;BME280;732;51.698;4.886;2022-09-11T11:16:45;102007.81;;;26.94;100.00
1480;BME280;732;51.698;4.886;2022-09-11T11:19:50;102046.53;;;27.44;100.00
1480;BME280;732;51.698;4.886;2022-09-11T11:22:44;102027.84;;;27.39;100.00
1480;BME280;732;51.698;4.886;2022-09-11T11:25:21;102038.78;;;27.87;100.00
1480;BME280;732;51.698;4.886;2022-09-11T11:28:20;102047.19;;;27.78;100.00
1480;BME280;732;51.698;4.886;2022-09-11T11:31:03;102023.97;;;27.75;100.00
1480;BME280;732;51.698;4.886;2022-09-11T11:33:55;102046.94;;;28.11;100.00
1480;BME280;732;51.698;4.886;2022-09-11T11:36:35;102038.84;;;28.11;100.00
1480;BME280;732;51.698;4.886;2022-09-11T11:39:17;102009.34;;;27.84;100.00
1480;BME280;732;51.698;4.886;2022-09-11T11:42:02;102004.31;;;27.73;100.00
1480;BME280;732;51.698;4.886;2022-09-11T11:44:40;101988.66;;;27.60;100.00
1480;BME280;732;51.698;4.886;2022-09-11T11:47:13;102018.00;;;27.40;100.00
1480;BME280;732;51.698;4.886;2022-09-11T11:49:55;102013.00;;;27.27;100.00
1480;BME280;732;51.698;4.886;2022-09-11T11:52:39;102029.38;;;27.20;100.00
1480;BME280;732;51.698;4.886;2022-09-11T11:55:16;102017.75;;;26.90;100.00
1480;BME280;732;51.698;4.886;2022-09-11T11:57:54;102039.38;;;26.86;100.00
1480;BME280;732;51.698;4.886;2022-09-11T12:00:27;102019.16;;;26.74;100.00
1480;BME280;732;51.698;4.886;2022-09-11T12:03:03;102024.72;;;26.67;100.00
1480;BME280;732;51.698;4.886;2022-09-11T12:05:37;102003.13;;;26.40;100.00
1480;BME280;732;51.698;4.886;2022-09-11T12:08:11;102044.97;;;26.46;100.00
1480;BME280;732;51.698;4.886;2022-09-11T12:10:43;102004.88;;;26.11;100.00
1480;BME280;732;51.698;4.886;2022-09-11T12:13:16;102039.56;;;26.15;100.00
1480;BME280;732;51.698;4.886;2022-09-11T12:16:14;102045.88;;;25.79;100.00
1480;BME280;732;51.698;4.886;2022-09-11T12:19:06;102014.84;;;25.34;100.00
1480;BME280;732;51.698;4.886;2022-09-11T12:21:41;102011.13;;;25.41;100.00
1480;BME280;732;51.698;4.886;2022-09-11T12:24:52;102010.56;;;25.64;100.00
1480;BME280;732;51.698;4.886;2022-09-11T12:27:52;102032.13;;;26.26;100.00
1480;BME280;732;51.698;4.886;2022-09-11T12:30:25;102023.03;;;26.63;100.00
1480;BME280;732;51.698;4.886;2022-09-11T12:32:56;102006.88;;;26.66;100.00
1480;BME280;732;51.698;4.886;2022-09-11T12:35:32;101974.94;;;26.57;100.00
1480;BME280;732;51.698;4.886;2022-09-11T12:38:19;102002.13;;;26.75;100.00
1480;BME280;732;51.698;4.886;2022-09-11T12:40:54;102008.78;;;27.19;100.00
1480;BME280;732;51.698;4.886;2022-09-11T12:43:46;102005.38;;;26.86;100.00
1480;BME280;732;51.698;4.886;2022-09-11T12:49:52;102002.53;;;27.18;100.00
1480;BME280;732;51.698;4.886;2022-09-11T12:52:32;101998.25;;;27.13;100.00
1480;BME280;732;51.698;4.886;2022-09-11T12:55:26;101976.28;;;26.73;100.00
1480;BME280;732;51.698;4.886;2022-09-11T12:57:56;101993.28;;;27.28;100.00
1480;BME280;732;51.698;4.886;2022-09-11T13:00:37;101991.31;;;27.61;100.00
1480;BME280;732;51.698;4.886;2022-09-11T13:03:16;101991.84;;;27.72;100.00
1480;BME280;732;51.698;4.886;2022-09-11T13:05:53;101990.56;;;27.58;100.00
1480;BME280;732;51.698;4.886;2022-09-11T13:08:27;101975.81;;;27.43;100.00
1480;BME280;732;51.698;4.886;2022-09-11T13:11:40;101985.69;;;27.43;100.00
1480;BME280;732;51.698;4.886;2022-09-11T13:14:47;101981.34;;;27.39;100.00
1480;BME280;732;51.698;4.886;2022-09-11T13:17:23;101957.59;;;27.25;100.00
1480;BME280;732;51.698;4.886;2022-09-11T13:20:09;101977.31;;;27.52;100.00
1480;BME280;732;51.698;4.886;2022-09-11T13:22:45;101975.06;;;27.90;100.00
1480;BME280;732;51.698;4.886;2022-09-11T13:25:19;101981.72;;;28.05;100.00
1480;BME280;732;51.698;4.886;2022-09-11T13:27:50;101940.63;;;28.01;100.00
1480;BME280;732;51.698;4.886;2022-09-11T13:30:22;101936.69;;;28.11;100.00
1480;BME280;732;51.698;4.886;2022-09-11T13:33:06;101935.97;;;28.06;100.00
1480;BME280;732;51.698;4.886;2022-09-11T13:35:36;101950.13;;;28.11;100.00
1480;BME280;732;51.698;4.886;2022-09-11T13:38:08;101964.28;;;28.16;100.00
1480;BME280;732;51.698;4.886;2022-09-11T13:40:45;101961.97;;;28.31;100.00
1480;BME280;732;51.698;4.886;2022-09-11T13:43:19;101939.34;;;28.36;100.00
1480;BME280;732;51.698;4.886;2022-09-11T13:48:55;101928.38;;;28.41;100.00
1480;BME280;732;51.698;4.886;2022-09-11T13:51:28;101914.44;;;28.31;100.00
1480;BME280;732;51.698;4.886;2022-09-11T13:54:07;101932.75;;;28.68;100.00
1480;BME280;732;51.698;4.886;2022-09-11T13:56:43;101946.84;;;28.96;100.00
1480;BME280;732;51.698;4.886;2022-09-11T13:59:44;101941.06;;;29.28;100.00